NZOH/OHA METAR and TAF weather

Enter ICAO airport designator
Station Type Date Time Source
NZOH METAR 2021/07/17 09:00 UTC NOAA

NZOH 170900Z 33014KT 20KM VCSH SCT035 BKN070 13/10 Q0987 TEMPO 33025KT 4000 +SHRA BKN020 SCT020TCU


Station Type Date Time Source
NZOH Decoded METAR 2021/07/17 09:00 UTC NOAA

Ohakea, New Zealand (NZOH) 40-12S 175-22E 52M
Jul 17, 2021 - 05:00 AM EDT / 2021.07.17 0900 UTC
Wind: from the NNW (330 degrees) at 16 MPH (14 KT):0
Sky conditions: mostly cloudy
Weather: showers in the vicinity; Towering cumulus clouds observed
Temperature: 55 F (13 C)
Dew Point: 50 F (10 C)
Relative Humidity: 81%
Pressure (altimeter): 29.15 in. Hg (0987 hPa)
ob: NZOH 170900Z 33014KT 20KM VCSH SCT035 BKN070 13/10 Q0987 TEMPO 33025KT 4000 +SHRA BKN020 SCT020TCU
cycle: 9

Station Type Date Time Source
NZOH TAF 2007/12/14 04:59 UTC NOAA

TAF NZOH 140459Z 140606 11020KT 30KM SCT080 BECMH 0911 03008KT
BECMG 2224 27012KT

Example: see airport list